Ana Sayfa
METAR-TAF:

METAR-TAF

Havaalanları :

Kopenhag Havalimanı

Kopenhag, Danimarka

Enlem: 55-37N, Boylam: 012-39E, yükseklik: 5 m

Güncel hava durumu gözlemi

Rapor saat 08:20 UTC de 13 dakika önce yapıldı.
Rüzgar batıdan 9 kt, batı/güneybatı ve kuzeybatı arasında değişken
Sıcaklık 20°C
Nem 56%
Basınç 1014 hPa
Görüş mesafesi 10 km veya daha fazla
1500 m altında bulut yok ve kümülonimbus yok

METAR: EKCH 200820Z 27009KT 240V310 CAVOK 20/11 Q1014 NOSIG

Saat: 10:33 (08:33 UTC)

Tahmin

Rapor saat 04:50 UTC de 3 saat ve 43 dakika önce yapıldı.
Ayın 20'si saat 06 UTC'den ayın 21'si saat 06 UTC'ye kadar geçerli Tahmin
Rüzgar kuzeybatıdan 10 kt
Görüş mesafesi 10 km veya daha fazla
4000 ft yükseklikte az bulutlu

TAF: EKCH 200450Z 2006/2106 32010KT 9999 FEW040

4.000'den fazla havaalanı için hava durumu gözlemleri ve tahminleri (METAR ve TAF raporları).

Kullanılabilir istasyonlar harita üzerinde sarı ve kırmızı noktalarla gösterilir.

İstasyonun adını görmek için fareyi noktanın üzerinde gezdirin.

Sonrasında hava gözlem ve tahminlerini görmek için tıklayın.

Haritayı değiştirmek için: yaklaştırmak için siyah artı işaretli yeşil düğmeye ve uzaklaştırmak için de eksi işaretli düğmeye hızla tıklayın; bitişik haritalar için yeşil okları kullanın.


METAR-TAF: